createdAt,value
2018-08-19T00:00:24.942Z,13.67
2018-08-19T00:03:00.572Z,11.30
2018-08-19T00:05:31.029Z,12.63
2018-08-19T00:08:00.819Z,11.33
2018-08-19T00:11:00.604Z,11.50
2018-08-19T00:13:30.366Z,11.37
2018-08-19T00:16:00.129Z,13.93
2018-08-19T00:18:30.044Z,14.90
2018-08-19T00:20:59.993Z,11.23
2018-08-19T00:23:37.567Z,12.60
2018-08-19T00:26:07.496Z,14.40
2018-08-19T00:28:37.172Z,10.63
2018-08-19T00:31:08.628Z,14.10
2018-08-19T00:33:38.409Z,15.53
2018-08-19T00:36:25.117Z,12.30
2018-08-19T00:38:55.889Z,16.87
2018-08-19T00:41:26.121Z,13.60
2018-08-19T00:43:55.878Z,16.13
2018-08-19T00:46:31.840Z,14.07
2018-08-19T00:49:02.134Z,14.13
2018-08-19T00:51:31.780Z,16.23
2018-08-19T00:54:01.537Z,14.73
2018-08-19T00:56:31.300Z,14.50
2018-08-19T00:59:00.953Z,19.33
2018-08-19T01:01:35.995Z,15.97
2018-08-19T01:04:09.801Z,22.87
2018-08-19T01:06:44.665Z,13.17
2018-08-19T01:09:14.682Z,19.63
2018-08-19T01:11:44.867Z,15.10
2018-08-19T01:14:15.944Z,15.97
2018-08-19T01:16:45.733Z,16.53
2018-08-19T01:19:16.892Z,15.33
2018-08-19T01:21:52.173Z,18.93
2018-08-19T01:24:22.868Z,15.17
2018-08-19T01:26:52.518Z,14.57
2018-08-19T01:29:35.108Z,16.73
2018-08-19T01:32:20.406Z,18.10
2018-08-19T01:34:50.059Z,12.93
2018-08-19T01:37:19.930Z,21.13
2018-08-19T01:39:49.519Z,18.23
2018-08-19T01:42:22.062Z,18.83
2018-08-19T01:44:51.620Z,18.77
2018-08-19T01:47:21.200Z,16.50
2018-08-19T01:49:50.981Z,21.37
2018-08-19T01:52:20.761Z,18.20
2018-08-19T01:54:50.478Z,16.07
2018-08-19T01:57:20.202Z,16.57
2018-08-19T01:59:49.768Z,19.90
2018-08-19T02:02:19.371Z,21.37
2018-08-19T02:04:54.398Z,16.17
2018-08-19T02:07:24.537Z,16.17
2018-08-19T02:10:02.796Z,19.03
2018-08-19T02:12:39.619Z,17.60
2018-08-19T02:15:10.537Z,17.33
2018-08-19T02:17:46.022Z,18.13
2018-08-19T02:20:16.066Z,20.43
2018-08-19T02:22:49.896Z,20.20
2018-08-19T02:25:19.628Z,20.40
2018-08-19T02:27:50.548Z,17.67
2018-08-19T02:30:20.396Z,20.33
2018-08-19T02:32:51.119Z,20.63
2018-08-19T02:35:21.040Z,18.23
2018-08-19T02:37:50.868Z,19.93
2018-08-19T02:40:25.821Z,22.23
2018-08-19T02:42:55.645Z,18.80
2018-08-19T02:45:25.712Z,18.07
2018-08-19T02:47:55.704Z,19.37
2018-08-19T02:50:25.295Z,20.57
2018-08-19T02:52:54.959Z,21.57
2018-08-19T02:55:26.414Z,21.57
2018-08-19T02:58:01.164Z,20.43
2018-08-19T03:00:30.760Z,25.43
2018-08-19T03:03:00.382Z,20.30
2018-08-19T03:05:29.960Z,25.77
2018-08-19T03:07:59.526Z,23.77
2018-08-19T03:10:29.381Z,23.57
2018-08-19T03:12:59.110Z,25.17
2018-08-19T03:15:28.661Z,22.90
2018-08-19T03:17:58.304Z,27.27
2018-08-19T03:20:28.164Z,24.77
2018-08-19T03:22:57.893Z,24.40
2018-08-19T03:25:28.089Z,24.00
2018-08-19T03:27:57.994Z,24.40
2018-08-19T03:30:27.888Z,26.80
2018-08-19T03:33:00.546Z,22.97
2018-08-19T03:35:30.287Z,23.63
2018-08-19T03:38:04.673Z,25.97
2018-08-19T03:40:34.162Z,26.33
2018-08-19T03:43:04.107Z,25.83
2018-08-19T03:45:33.808Z,27.30
2018-08-19T03:48:03.456Z,26.33
2018-08-19T03:50:36.667Z,29.10
2018-08-19T03:53:06.890Z,26.00
2018-08-19T03:55:39.303Z,29.80
2018-08-19T03:58:10.515Z,30.33
2018-08-19T04:00:43.841Z,27.33
2018-08-19T04:03:22.064Z,30.37
2018-08-19T04:05:57.304Z,27.67
2018-08-19T04:08:33.757Z,32.30
2018-08-19T04:11:07.441Z,32.63
2018-08-19T04:13:39.629Z,28.43
2018-08-19T04:16:11.168Z,33.17
2018-08-19T04:18:43.193Z,30.00
2018-08-19T04:21:17.668Z,31.60
2018-08-19T04:23:49.688Z,29.17
2018-08-19T04:26:19.707Z,32.87
2018-08-19T04:28:49.296Z,33.47
2018-08-19T04:31:24.265Z,29.33
2018-08-19T04:33:55.019Z,31.03
2018-08-19T04:36:25.325Z,36.03
2018-08-19T04:38:55.412Z,27.50
2018-08-19T04:41:25.092Z,27.90
2018-08-19T04:43:56.044Z,29.97
2018-08-19T04:46:25.757Z,27.57
2018-08-19T04:48:55.615Z,33.40
2018-08-19T04:51:26.459Z,25.23
2018-08-19T04:53:56.231Z,27.53
2018-08-19T04:56:25.943Z,24.73
2018-08-19T04:58:55.826Z,27.87
2018-08-19T05:01:25.444Z,29.20
2018-08-19T05:03:55.499Z,23.57
2018-08-19T05:06:25.839Z,27.23
2018-08-19T05:08:55.624Z,22.57
2018-08-19T05:11:25.299Z,21.97
2018-08-19T05:13:55.211Z,21.80
2018-08-19T05:16:24.950Z,20.60
2018-08-19T05:18:59.613Z,22.80
2018-08-19T05:21:29.394Z,20.67
2018-08-19T05:23:59.190Z,22.57
2018-08-19T05:26:28.923Z,18.07
2018-08-19T05:29:10.768Z,18.87
2018-08-19T05:31:45.271Z,17.97
2018-08-19T05:34:45.784Z,15.83
2018-08-19T05:37:15.489Z,16.37
2018-08-19T05:39:51.231Z,16.50
2018-08-19T05:42:20.892Z,18.80
2018-08-19T05:44:50.549Z,15.90
2018-08-19T05:47:20.331Z,14.37
2018-08-19T05:49:51.334Z,14.63
2018-08-19T05:52:22.352Z,13.97
2018-08-19T05:54:58.226Z,13.03
2018-08-19T05:57:29.780Z,12.60
2018-08-19T06:00:01.007Z,13.80
2018-08-19T06:02:35.945Z,14.03
2018-08-19T06:05:05.882Z,14.63
2018-08-19T06:07:35.838Z,15.30
2018-08-19T06:10:06.251Z,13.70
2018-08-19T06:12:36.048Z,11.87
2018-08-19T06:15:06.547Z,13.37
2018-08-19T06:17:36.296Z,17.20
2018-08-19T06:20:06.498Z,12.57
2018-08-19T06:22:40.821Z,12.13
2018-08-19T06:25:11.857Z,14.30
2018-08-19T06:27:46.515Z,13.53
2018-08-19T06:30:17.045Z,11.67
2018-08-19T06:32:46.974Z,12.03
2018-08-19T06:35:16.768Z,13.53
2018-08-19T06:37:46.488Z,12.00
2018-08-19T06:40:20.904Z,13.73
2018-08-19T06:42:50.563Z,12.78
2018-08-19T06:45:20.392Z,15.08
2018-08-19T06:47:50.116Z,11.85
2018-08-19T06:50:33.627Z,11.93
2018-08-19T06:53:03.386Z,13.18
2018-08-19T06:55:33.100Z,11.48
2018-08-19T06:58:02.893Z,12.25
2018-08-19T07:00:33.265Z,12.75
2018-08-19T07:03:05.780Z,13.32
2018-08-19T07:05:35.656Z,12.33
2018-08-19T07:08:05.374Z,14.75
2018-08-19T07:10:40.197Z,14.78
2018-08-19T07:13:13.007Z,11.22
2018-08-19T07:15:43.852Z,10.70
2018-08-19T07:18:15.280Z,16.45
2018-08-19T07:20:45.563Z,12.10
2018-08-19T07:23:15.273Z,13.58
2018-08-19T07:25:45.828Z,14.78
2018-08-19T07:28:17.366Z,14.03
2018-08-19T07:30:47.394Z,12.70
2018-08-19T07:33:17.003Z,13.90
2018-08-19T07:35:46.647Z,14.93
2018-08-19T07:38:16.989Z,12.35
2018-08-19T07:40:46.714Z,16.05
2018-08-19T07:43:16.357Z,13.80
2018-08-19T07:45:45.984Z,12.93
2018-08-19T07:48:15.779Z,11.43
2018-08-19T07:50:45.473Z,13.72
2018-08-19T07:53:21.815Z,13.35
2018-08-19T07:55:51.432Z,14.90
2018-08-19T07:58:42.704Z,14.37
2018-08-19T08:01:12.465Z,14.40
2018-08-19T08:03:42.116Z,15.53
2018-08-19T08:06:11.831Z,16.50
2018-08-19T08:08:41.580Z,18.10
2018-08-19T08:11:11.491Z,15.10
2018-08-19T08:13:41.445Z,15.07
2018-08-19T08:16:11.252Z,13.93
2018-08-19T08:18:40.885Z,13.27
2018-08-19T08:21:13.668Z,10.63
2018-08-19T08:23:43.647Z,14.63
2018-08-19T08:26:13.400Z,13.53
2018-08-19T08:28:52.647Z,20.53
2018-08-19T08:31:22.348Z,14.07
2018-08-19T08:33:52.110Z,14.57
2018-08-19T08:36:21.756Z,16.07
2018-08-19T08:38:51.491Z,15.87
2018-08-19T08:41:21.157Z,18.23
2018-08-19T08:43:50.825Z,11.73
2018-08-19T08:46:20.479Z,13.40
2018-08-19T08:48:50.180Z,12.03
2018-08-19T08:51:19.990Z,11.93
2018-08-19T08:53:49.660Z,13.33
2018-08-19T08:56:19.398Z,13.57
2018-08-19T08:58:48.996Z,13.40
2018-08-19T09:01:18.658Z,11.47
2018-08-19T09:03:48.258Z,13.93
2018-08-19T09:06:23.186Z,15.13
2018-08-19T09:08:52.822Z,15.97
2018-08-19T09:11:22.401Z,12.67
2018-08-19T09:13:52.212Z,12.67
2018-08-19T09:16:22.003Z,13.00
2018-08-19T09:18:51.786Z,13.47
2018-08-19T09:21:21.453Z,15.93
2018-08-19T09:23:51.296Z,14.10
2018-08-19T09:26:21.005Z,13.63
2018-08-19T09:28:50.647Z,12.93
2018-08-19T09:31:20.327Z,16.00
2018-08-19T09:33:49.940Z,14.33
2018-08-19T09:36:19.662Z,18.40
2018-08-19T09:38:49.331Z,13.37
2018-08-19T09:41:18.942Z,17.53
2018-08-19T09:43:48.581Z,18.10
2018-08-19T09:46:18.256Z,11.23
2018-08-19T09:48:47.919Z,12.90
2018-08-19T09:51:17.493Z,12.47
2018-08-19T09:53:47.303Z,17.67
2018-08-19T09:56:20.537Z,13.00
2018-08-19T09:58:55.423Z,12.13
2018-08-19T10:01:45.165Z,17.60
2018-08-19T10:04:22.855Z,11.67
2018-08-19T10:07:02.622Z,12.03
2018-08-19T10:09:32.172Z,11.93
2018-08-19T10:12:02.091Z,12.30
2018-08-19T10:14:31.777Z,12.53
2018-08-19T10:17:01.643Z,12.73
2018-08-19T10:19:38.090Z,13.23
2018-08-19T10:22:07.757Z,12.13
2018-08-19T10:24:37.503Z,9.97
2018-08-19T10:27:09.528Z,9.40
2018-08-19T10:29:39.540Z,9.43
2018-08-19T10:32:09.562Z,12.73
2018-08-19T10:34:39.536Z,13.83
2018-08-19T10:37:09.458Z,11.05
2018-08-19T10:39:39.179Z,10.00
2018-08-19T10:42:21.967Z,8.15
2018-08-19T10:44:52.934Z,7.90
2018-08-19T10:47:22.733Z,8.13
2018-08-19T10:50:10.303Z,8.28
2018-08-19T10:52:42.033Z,9.73
2018-08-19T10:55:13.312Z,11.25
2018-08-19T10:57:43.328Z,10.85
2018-08-19T11:00:15.978Z,9.18
2018-08-19T11:02:45.568Z,8.00
2018-08-19T11:05:15.626Z,9.23
2018-08-19T11:07:45.299Z,8.10
2018-08-19T11:10:26.817Z,12.00
2018-08-19T11:12:58.269Z,11.85
2018-08-19T11:15:45.486Z,8.65
2018-08-19T11:18:36.285Z,13.78
2018-08-19T11:21:09.851Z,13.88
2018-08-19T11:23:41.744Z,10.78
2018-08-19T11:26:12.443Z,10.13
2018-08-19T11:28:46.028Z,10.63
2018-08-19T11:31:28.180Z,10.07
2018-08-19T11:34:01.853Z,14.17
2018-08-19T11:36:37.857Z,10.93
2018-08-19T11:39:09.616Z,11.03
2018-08-19T11:41:39.360Z,11.23
2018-08-19T11:44:15.581Z,9.93
2018-08-19T11:46:45.290Z,9.33
2018-08-19T11:49:17.904Z,8.67
2018-08-19T11:51:49.731Z,9.30
2018-08-19T11:54:20.335Z,12.33
2018-08-19T11:56:58.879Z,9.30
2018-08-19T11:59:33.990Z,8.33
2018-08-19T12:02:04.120Z,8.80
2018-08-19T12:04:33.929Z,9.00
2018-08-19T12:07:03.757Z,8.90
2018-08-19T12:09:33.556Z,10.30
2018-08-19T12:12:03.663Z,10.23
2018-08-19T12:14:36.231Z,10.60
2018-08-19T12:17:13.286Z,9.93
2018-08-19T12:19:44.482Z,9.77
2018-08-19T12:22:14.203Z,9.37
2018-08-19T12:24:46.725Z,8.13
2018-08-19T12:27:19.830Z,9.17
2018-08-19T12:29:49.599Z,9.70
2018-08-19T12:32:27.882Z,10.77
2018-08-19T12:35:01.594Z,8.03
2018-08-19T12:37:32.576Z,8.83
2018-08-19T12:40:02.318Z,9.33
2018-08-19T12:42:37.545Z,9.90
2018-08-19T12:45:08.409Z,10.93
2018-08-19T12:47:38.256Z,7.57
2018-08-19T12:50:13.577Z,8.17
2018-08-19T12:52:43.405Z,9.83
2018-08-19T12:55:16.507Z,8.53
2018-08-19T12:57:47.952Z,9.50
2018-08-19T13:00:23.909Z,8.40
2018-08-19T13:02:53.836Z,8.10
2018-08-19T13:05:23.880Z,8.40
2018-08-19T13:07:53.674Z,9.40
2018-08-19T13:10:23.832Z,7.53
2018-08-19T13:12:59.516Z,8.23
2018-08-19T13:15:30.917Z,9.93
2018-08-19T13:18:00.850Z,8.47
2018-08-19T13:20:30.587Z,9.27
2018-08-19T13:23:02.504Z,8.47
2018-08-19T13:25:32.584Z,10.00
2018-08-19T13:28:02.527Z,10.13
2018-08-19T13:30:32.472Z,10.23
2018-08-19T13:33:02.251Z,8.23
2018-08-19T13:35:32.129Z,9.93
2018-08-19T13:38:01.777Z,8.00
2018-08-19T13:40:38.245Z,10.73
2018-08-19T13:43:07.922Z,8.07
2018-08-19T13:45:37.696Z,10.60
2018-08-19T13:48:07.338Z,8.30
2018-08-19T13:50:37.120Z,9.67
2018-08-19T13:53:06.890Z,8.30
2018-08-19T13:55:37.220Z,7.93
2018-08-19T13:58:06.874Z,10.03
2018-08-19T14:00:36.915Z,9.30
2018-08-19T14:03:06.754Z,8.80
2018-08-19T14:05:36.878Z,9.20
2018-08-19T14:08:06.799Z,10.33
2018-08-19T14:10:36.840Z,8.33
2018-08-19T14:13:06.666Z,12.07
2018-08-19T14:15:36.580Z,9.97
2018-08-19T14:18:06.991Z,9.27
2018-08-19T14:20:37.129Z,9.67
2018-08-19T14:23:06.773Z,11.13
2018-08-19T14:25:36.811Z,8.33
2018-08-19T14:28:06.741Z,9.33
2018-08-19T14:30:37.365Z,10.17
2018-08-19T14:33:07.622Z,11.43
2018-08-19T14:35:38.804Z,7.90
2018-08-19T14:38:08.835Z,8.13
2018-08-19T14:40:39.247Z,10.20
2018-08-19T14:43:08.908Z,9.40
2018-08-19T14:45:39.482Z,9.10
2018-08-19T14:48:09.644Z,9.17
2018-08-19T14:50:42.308Z,11.07
2018-08-19T14:53:12.121Z,11.47
2018-08-19T14:55:42.288Z,7.90
2018-08-19T14:58:12.160Z,9.57
2018-08-19T15:00:42.966Z,9.17
2018-08-19T15:03:12.685Z,8.20
2018-08-19T15:05:48.356Z,9.93
2018-08-19T15:08:19.574Z,9.53
2018-08-19T15:10:53.573Z,9.20
2018-08-19T15:13:23.536Z,11.90
2018-08-19T15:15:53.433Z,8.93
2018-08-19T15:18:23.085Z,9.43
2018-08-19T15:20:52.794Z,10.43
2018-08-19T15:23:22.720Z,10.40
2018-08-19T15:25:52.423Z,10.40
2018-08-19T15:28:22.099Z,9.10
2018-08-19T15:30:51.816Z,9.03
2018-08-19T15:33:22.784Z,9.87
2018-08-19T15:35:52.423Z,10.43
2018-08-19T15:38:22.117Z,9.20
2018-08-19T15:40:51.816Z,10.43
2018-08-19T15:43:21.385Z,8.70
2018-08-19T15:45:50.997Z,11.30
2018-08-19T15:48:20.896Z,10.47
2018-08-19T15:50:57.436Z,8.83
2018-08-19T15:53:27.264Z,9.67
2018-08-19T15:55:57.044Z,9.87
2018-08-19T15:58:28.749Z,14.17
2018-08-19T16:00:58.386Z,12.20
2018-08-19T16:03:28.019Z,11.47
2018-08-19T16:05:58.375Z,11.37
2018-08-19T16:08:28.037Z,9.67
2018-08-19T16:10:57.599Z,9.27
2018-08-19T16:13:27.386Z,10.10
2018-08-19T16:15:57.016Z,8.97
2018-08-19T16:18:26.653Z,8.40
2018-08-19T16:21:01.518Z,8.37
2018-08-19T16:23:31.329Z,8.30
2018-08-19T16:26:01.215Z,9.17
2018-08-19T16:28:30.866Z,8.07
2018-08-19T16:31:00.509Z,7.77
2018-08-19T16:33:30.495Z,10.27
2018-08-19T16:36:00.143Z,11.23
2018-08-19T16:38:29.731Z,8.03
2018-08-19T16:40:59.448Z,8.07
2018-08-19T16:43:29.067Z,10.43
2018-08-19T16:45:58.760Z,8.67
2018-08-19T16:48:28.565Z,8.43
2018-08-19T16:50:58.291Z,10.43
2018-08-19T16:53:28.030Z,9.20
2018-08-19T16:55:57.855Z,7.63
2018-08-19T16:58:27.616Z,9.30
2018-08-19T17:00:57.313Z,10.23
2018-08-19T17:03:37.715Z,14.53
2018-08-19T17:06:14.522Z,9.60
2018-08-19T17:08:44.508Z,10.17
2018-08-19T17:11:15.511Z,8.10
2018-08-19T17:13:45.426Z,12.80
2018-08-19T17:16:15.062Z,7.37
2018-08-19T17:18:44.691Z,7.37
2018-08-19T17:21:14.567Z,6.83
2018-08-19T17:23:48.360Z,10.63
2018-08-19T17:26:21.160Z,7.63
2018-08-19T17:28:51.515Z,10.83
2018-08-19T17:31:21.559Z,9.27
2018-08-19T17:33:51.546Z,10.47
2018-08-19T17:46:16.511Z,10.70
2018-08-19T17:48:46.331Z,8.30
2018-08-19T17:51:31.965Z,11.43
2018-08-19T17:54:01.896Z,8.97
2018-08-19T17:56:31.595Z,10.10
2018-08-19T17:59:01.812Z,11.67
2018-08-19T18:01:31.582Z,7.80
2018-08-19T18:04:01.359Z,12.13
2018-08-19T18:06:30.998Z,10.90
2018-08-19T18:09:00.812Z,10.80
2018-08-19T18:11:30.496Z,9.23
2018-08-19T18:14:00.420Z,9.17
2018-08-19T18:16:30.271Z,9.57
2018-08-19T18:19:01.470Z,9.37
2018-08-19T18:21:35.767Z,11.43
2018-08-19T18:24:07.397Z,8.97
2018-08-19T18:26:37.240Z,10.50
2018-08-19T18:29:06.921Z,8.53
2018-08-19T18:31:37.142Z,8.67
2018-08-19T18:34:10.011Z,9.67
2018-08-19T18:36:40.115Z,9.23
2018-08-19T18:39:12.132Z,11.07
2018-08-19T18:41:46.597Z,10.47
2018-08-19T18:44:16.510Z,12.83
2018-08-19T18:46:46.396Z,10.10
2018-08-19T18:49:16.263Z,10.77
2018-08-19T18:51:48.176Z,10.63
2018-08-19T18:54:25.075Z,11.17
2018-08-19T18:56:54.741Z,9.73
2018-08-19T18:59:24.369Z,10.43
2018-08-19T19:01:59.111Z,10.33
2018-08-19T19:04:29.111Z,13.57
2018-08-19T19:06:59.241Z,11.10
2018-08-19T19:09:42.145Z,12.60
2018-08-19T19:12:12.379Z,12.07
2018-08-19T19:14:42.321Z,11.57
2018-08-19T19:17:12.493Z,12.73
2018-08-19T19:19:47.967Z,13.50
2018-08-19T19:22:17.866Z,12.30
2018-08-19T19:24:48.160Z,11.07
2018-08-19T19:27:18.194Z,13.23
2018-08-19T19:29:52.313Z,12.63
2018-08-19T19:32:25.664Z,15.20
2018-08-19T19:34:55.372Z,15.03
2018-08-19T19:37:25.323Z,12.13
2018-08-19T19:40:00.293Z,13.73
2018-08-19T19:42:30.068Z,12.53
2018-08-19T19:45:00.446Z,12.93
2018-08-19T19:47:30.202Z,12.50
2018-08-19T19:50:00.480Z,21.33
2018-08-19T19:52:30.468Z,13.40
2018-08-19T19:55:00.356Z,14.83
2018-08-19T19:57:30.150Z,11.50
2018-08-19T19:59:59.928Z,12.37
2018-08-19T20:02:31.594Z,12.77
2018-08-19T20:05:09.073Z,14.07
2018-08-19T20:07:38.847Z,13.17
2018-08-19T20:10:13.205Z,11.03
2018-08-19T20:12:43.041Z,13.00
2018-08-19T20:15:12.740Z,12.23
2018-08-19T20:17:42.423Z,14.37
2018-08-19T20:20:12.100Z,14.93
2018-08-19T20:22:42.025Z,12.07
2018-08-19T20:25:11.693Z,12.83
2018-08-19T20:27:41.897Z,14.60
2018-08-19T20:30:11.964Z,14.13
2018-08-19T20:32:41.774Z,15.97
2018-08-19T20:35:11.656Z,16.07
2018-08-19T20:37:41.484Z,14.03
2018-08-19T20:40:11.406Z,14.07
2018-08-19T20:42:41.080Z,16.87
2018-08-19T20:45:10.847Z,15.33
2018-08-19T20:47:41.375Z,18.00
2018-08-19T20:50:11.076Z,12.73
2018-08-19T20:52:45.723Z,13.37
2018-08-19T20:55:16.036Z,15.67
2018-08-19T20:57:46.662Z,13.40
2018-08-19T21:00:16.600Z,11.43
2018-08-19T21:02:46.362Z,13.77
2018-08-19T21:05:16.101Z,13.97
2018-08-19T21:07:45.936Z,14.00
2018-08-19T21:10:15.733Z,12.50
2018-08-19T21:12:45.511Z,12.97
2018-08-19T21:15:22.480Z,13.03
2018-08-19T21:17:52.398Z,13.43
2018-08-19T21:20:22.273Z,15.70
2018-08-19T21:22:53.348Z,16.43
2018-08-19T21:25:23.047Z,16.07
2018-08-19T21:27:53.003Z,16.57
2018-08-19T21:30:23.424Z,14.27
2018-08-19T21:32:53.906Z,14.83
2018-08-19T21:35:24.108Z,15.80
2018-08-19T21:37:53.725Z,17.30
2018-08-19T21:40:28.511Z,13.27
2018-08-19T21:42:58.668Z,21.17
2018-08-19T21:45:28.285Z,17.60
2018-08-19T21:47:57.921Z,17.70
2018-08-19T21:50:27.550Z,15.33
2018-08-19T21:53:02.232Z,14.73
2018-08-19T21:55:34.080Z,14.83
2018-08-19T21:58:04.198Z,15.03
2018-08-19T22:00:42.013Z,16.00
2018-08-19T22:03:22.007Z,15.13
2018-08-19T22:05:53.072Z,13.77
2018-08-19T22:08:24.273Z,16.03
2018-08-19T22:10:54.131Z,16.50
2018-08-19T22:13:23.782Z,15.40
2018-08-19T22:15:53.472Z,14.70
2018-08-19T22:18:24.015Z,14.67
2018-08-19T22:21:09.332Z,14.13
2018-08-19T22:23:48.630Z,15.73
2018-08-19T22:26:19.332Z,13.47
2018-08-19T22:29:08.461Z,14.80
2018-08-19T22:31:38.042Z,16.17
2018-08-19T22:34:07.760Z,16.53
2018-08-19T22:36:37.448Z,14.33
2018-08-19T22:39:09.046Z,15.17
2018-08-19T22:41:38.718Z,16.23
2018-08-19T22:44:08.371Z,13.83
2018-08-19T22:46:38.000Z,14.63
2018-08-19T22:49:07.579Z,14.03
2018-08-19T22:51:37.209Z,16.43
2018-08-19T22:54:06.934Z,14.63
2018-08-19T22:56:36.499Z,14.30
2018-08-19T22:59:06.215Z,13.90
2018-08-19T23:01:40.958Z,15.20
2018-08-19T23:04:10.588Z,18.70
2018-08-19T23:06:40.223Z,14.70
2018-08-19T23:09:09.957Z,20.43
2018-08-19T23:11:44.719Z,14.57
2018-08-19T23:14:31.090Z,14.37
2018-08-19T23:17:00.784Z,14.43
2018-08-19T23:19:30.388Z,16.10
2018-08-19T23:22:00.074Z,15.87
2018-08-19T23:24:29.712Z,15.10
2018-08-19T23:26:59.476Z,15.63
2018-08-19T23:29:29.120Z,15.30
2018-08-19T23:31:58.742Z,14.30
2018-08-19T23:34:28.436Z,15.80
2018-08-19T23:36:58.282Z,16.80
2018-08-19T23:39:27.874Z,17.57
2018-08-19T23:41:57.524Z,15.13
2018-08-19T23:44:27.194Z,17.00
2018-08-19T23:46:56.824Z,18.23
2018-08-19T23:49:26.442Z,14.30
2018-08-19T23:51:56.087Z,16.60
2018-08-19T23:54:25.722Z,14.70
2018-08-19T23:56:55.369Z,15.00
2018-08-19T23:59:31.927Z,18.03
